Time;durP1;ratioP1;P1;durP2;ratioP2;P2;SDS_P1;SDS_P2;PMS_P1;PMS_P2;Temp;Humidity;BMP_temperature;BMP_pressure;BME280_temperature;BME280_humidity;BME280_pressure;Samples;Min_cycle;Max_cycle;Signal;HPM_P1;HPM_P2
2022/10/25 00:00:27;;;;;;;14.60;11.23;;;;;;;;;;6623830;28;20180;-82
2022/10/25 00:03:37;;;;;;;14.13;12.07;;;;;;;;;;6623818;28;20168;-81
2022/10/25 00:06:47;;;;;;;14.97;12.20;;;;;;;;;;6623507;28;20176;-82
2022/10/25 00:09:58;;;;;;;14.47;11.90;;;;;;;;;;6606654;28;20632;-81
2022/10/25 00:13:08;;;;;;;14.37;11.47;;;;;;;;;;6622947;28;20167;-81
2022/10/25 00:16:20;;;;;;;13.33;11.50;;;;;;;;;;6622916;28;20180;-82
2022/10/25 00:19:30;;;;;;;13.40;10.47;;;;;;;;;;6623168;28;20211;-82
2022/10/25 00:22:40;;;;;;;14.37;11.17;;;;;;;;;;6622754;28;20164;-82
2022/10/25 00:25:59;;;;;;;14.30;11.40;;;;;;;;;;6622538;28;20198;-83
2022/10/25 00:29:09;;;;;;;13.50;11.27;;;;;;;;;;6623418;28;20516;-83
2022/10/25 00:32:20;;;;;;;13.67;11.53;;;;;;;;;;6622832;28;20172;-82
2022/10/25 00:35:30;;;;;;;13.27;11.23;;;;;;;;;;6623533;28;20608;-82
2022/10/25 00:38:41;;;;;;;12.10;10.47;;;;;;;;;;6622470;28;20164;-83
2022/10/25 00:41:51;;;;;;;12.67;10.63;;;;;;;;;;6622362;28;20181;-83
2022/10/25 00:45:10;;;;;;;13.00;10.17;;;;;;;;;;6622230;28;20207;-83
2022/10/25 00:48:21;;;;;;;14.33;11.23;;;;;;;;;;6622998;28;20170;-83
2022/10/25 00:51:49;;;;;;;13.63;10.87;;;;;;;;;;6621687;28;20168;-83
2022/10/25 00:55:01;;;;;;;12.50;11.10;;;;;;;;;;6622774;28;20174;-83
2022/10/25 00:58:13;;;;;;;11.97;10.67;;;;;;;;;;6604086;28;20239;-83
2022/10/25 01:01:24;;;;;;;14.37;11.57;;;;;;;;;;6621951;28;20590;-83
2022/10/25 01:04:35;;;;;;;17.03;12.93;;;;;;;;;;6622262;28;20558;-82
2022/10/25 01:07:46;;;;;;;13.80;11.50;;;;;;;;;;6622288;28;20171;-82
2022/10/25 01:10:56;;;;;;;12.27;10.97;;;;;;;;;;6621905;28;20525;-82
2022/10/25 01:14:09;;;;;;;11.80;10.03;;;;;;;;;;6622244;28;20184;-82
2022/10/25 01:17:22;;;;;;;12.67;10.70;;;;;;;;;;6622482;28;20176;-82
2022/10/25 01:20:54;;;;;;;12.43;10.00;;;;;;;;;;6622463;28;20164;-82
2022/10/25 01:24:07;;;;;;;13.53;9.70;;;;;;;;;;6622104;28;20667;-82
2022/10/25 01:27:29;;;;;;;11.90;10.20;;;;;;;;;;6622133;28;20174;-82
2022/10/25 01:31:03;;;;;;;11.20;9.97;;;;;;;;;;6605283;28;20613;-82
2022/10/25 01:34:16;;;;;;;12.33;10.33;;;;;;;;;;6622092;28;20167;-82
2022/10/25 01:37:35;;;;;;;12.00;10.60;;;;;;;;;;6621956;28;20172;-83
2022/10/25 01:40:58;;;;;;;12.90;10.50;;;;;;;;;;6621931;28;20601;-82
2022/10/25 01:44:18;;;;;;;16.17;10.80;;;;;;;;;;6621945;28;20326;-82
2022/10/25 01:47:31;;;;;;;13.37;10.73;;;;;;;;;;6622223;28;20589;-82
2022/10/25 01:50:44;;;;;;;14.13;10.03;;;;;;;;;;6621365;28;20180;-82
2022/10/25 01:53:55;;;;;;;13.07;9.90;;;;;;;;;;6622052;28;20190;-82
2022/10/25 01:57:06;;;;;;;11.87;9.90;;;;;;;;;;6621978;28;20227;-82
2022/10/25 02:00:17;;;;;;;12.60;9.77;;;;;;;;;;6621211;28;20179;-82
2022/10/25 02:03:32;;;;;;;11.20;9.10;;;;;;;;;;6624621;28;20196;-81
2022/10/25 02:06:48;;;;;;;12.53;9.47;;;;;;;;;;6627135;28;20191;-83
2022/10/25 02:10:02;;;;;;;11.07;8.67;;;;;;;;;;6626373;28;20229;-83
2022/10/25 02:13:20;;;;;;;11.07;9.20;;;;;;;;;;6626374;28;20177;-83
2022/10/25 02:16:36;;;;;;;11.80;9.13;;;;;;;;;;6626823;28;20199;-83
2022/10/25 02:19:49;;;;;;;11.83;9.73;;;;;;;;;;6625839;28;20511;-83
2022/10/25 02:23:01;;;;;;;11.17;9.67;;;;;;;;;;6626821;28;20175;-83
2022/10/25 02:26:13;;;;;;;13.17;10.23;;;;;;;;;;6626332;28;20279;-83
2022/10/25 02:29:24;;;;;;;12.80;10.87;;;;;;;;;;6625923;28;20199;-82
2022/10/25 02:32:35;;;;;;;10.57;9.53;;;;;;;;;;6626595;28;20241;-82
2022/10/25 02:36:03;;;;;;;12.80;9.83;;;;;;;;;;6626506;28;20534;-82
2022/10/25 02:39:14;;;;;;;10.20;8.77;;;;;;;;;;6625716;28;20217;-83
2022/10/25 02:42:24;;;;;;;11.77;9.13;;;;;;;;;;6625645;28;20225;-83
2022/10/25 02:45:34;;;;;;;12.93;9.37;;;;;;;;;;6625153;28;20253;-82
2022/10/25 02:48:45;;;;;;;10.43;8.83;;;;;;;;;;6625813;28;20186;-83
2022/10/25 02:51:55;;;;;;;10.33;8.10;;;;;;;;;;6625886;28;20187;-83
2022/10/25 02:55:06;;;;;;;11.23;8.90;;;;;;;;;;6624965;28;20180;-82
2022/10/25 02:58:16;;;;;;;12.27;9.17;;;;;;;;;;6624676;28;20235;-82
2022/10/25 03:01:26;;;;;;;10.40;8.13;;;;;;;;;;6625042;28;20188;-83
2022/10/25 03:04:37;;;;;;;10.03;8.60;;;;;;;;;;6624992;28;20199;-82
2022/10/25 03:07:47;;;;;;;9.47;8.43;;;;;;;;;;6607228;28;20265;-82
2022/10/25 03:10:57;;;;;;;11.63;9.17;;;;;;;;;;6625306;28;20632;-82
2022/10/25 03:14:08;;;;;;;29.97;23.10;;;;;;;;;;6623928;28;20259;-83
2022/10/25 03:17:18;;;;;;;15.93;13.07;;;;;;;;;;6624682;28;20574;-82
2022/10/25 03:20:28;;;;;;;15.20;11.17;;;;;;;;;;6624945;28;20199;-82
2022/10/25 03:23:39;;;;;;;13.30;11.20;;;;;;;;;;6624797;28;20171;-83
2022/10/25 03:26:49;;;;;;;11.23;10.03;;;;;;;;;;6624281;28;20187;-82
2022/10/25 03:29:59;;;;;;;15.90;13.10;;;;;;;;;;6624558;28;20168;-83
2022/10/25 03:33:09;;;;;;;16.23;13.40;;;;;;;;;;6624420;28;20164;-82
2022/10/25 03:36:20;;;;;;;13.37;10.53;;;;;;;;;;6623996;28;20262;-82
2022/10/25 03:39:30;;;;;;;10.87;9.60;;;;;;;;;;6624232;28;20628;-82
2022/10/25 03:42:41;;;;;;;12.07;9.20;;;;;;;;;;6624109;28;20167;-82
2022/10/25 03:45:51;;;;;;;13.13;10.17;;;;;;;;;;6623622;28;20231;-83
2022/10/25 03:49:01;;;;;;;11.43;9.37;;;;;;;;;;6623990;28;20203;-83
2022/10/25 03:52:12;;;;;;;13.27;9.03;;;;;;;;;;6624268;28;20265;-83
2022/10/25 03:55:22;;;;;;;11.53;8.80;;;;;;;;;;6623412;28;20190;-83
2022/10/25 03:58:32;;;;;;;10.17;8.27;;;;;;;;;;6624575;28;20573;-83
2022/10/25 04:01:42;;;;;;;8.73;7.83;;;;;;;;;;6623147;28;20241;-83
2022/10/25 04:04:53;;;;;;;10.37;9.37;;;;;;;;;;6623545;28;20660;-83
2022/10/25 04:08:03;;;;;;;13.87;12.47;;;;;;;;;;6623431;28;20317;-83
2022/10/25 04:11:14;;;;;;;13.03;11.23;;;;;;;;;;6623286;28;20571;-83
2022/10/25 04:14:24;;;;;;;13.00;11.47;;;;;;;;;;6622979;28;20628;-83
2022/10/25 04:17:34;;;;;;;15.10;10.80;;;;;;;;;;6623282;28;20176;-83
2022/10/25 04:20:44;;;;;;;19.17;15.83;;;;;;;;;;6623227;28;20172;-83
2022/10/25 04:23:55;;;;;;;17.83;14.87;;;;;;;;;;6623132;28;20207;-83
2022/10/25 04:27:05;;;;;;;14.17;11.30;;;;;;;;;;6622625;28;20179;-83
2022/10/25 04:30:15;;;;;;;15.53;12.27;;;;;;;;;;6622619;28;20168;-83
2022/10/25 04:33:26;;;;;;;11.93;10.50;;;;;;;;;;6622910;28;20175;-82
2022/10/25 04:36:37;;;;;;;11.00;9.80;;;;;;;;;;6623431;28;20180;-82
2022/10/25 04:39:48;;;;;;;21.17;17.87;;;;;;;;;;6606016;28;20585;-82
2022/10/25 04:43:01;;;;;;;25.03;19.93;;;;;;;;;;6622384;28;20191;-83
2022/10/25 04:46:12;;;;;;;24.77;17.80;;;;;;;;;;6622337;28;20230;-83
2022/10/25 04:49:22;;;;;;;21.73;18.63;;;;;;;;;;6622325;28;20206;-83
2022/10/25 04:52:32;;;;;;;18.73;14.00;;;;;;;;;;6623016;28;20493;-83
2022/10/25 04:55:43;;;;;;;14.07;11.87;;;;;;;;;;6623017;28;20175;-84
2022/10/25 04:58:53;;;;;;;10.53;9.53;;;;;;;;;;6623491;28;20223;-83
2022/10/25 05:02:04;;;;;;;12.67;8.43;;;;;;;;;;6622844;28;20192;-83
2022/10/25 05:05:14;;;;;;;9.10;7.77;;;;;;;;;;6622232;28;20229;-84
2022/10/25 05:08:25;;;;;;;9.30;7.50;;;;;;;;;;6622438;28;20183;-84
2022/10/25 05:11:35;;;;;;;9.47;8.53;;;;;;;;;;6622796;28;20187;-84
2022/10/25 05:14:45;;;;;;;10.77;9.67;;;;;;;;;;6604571;28;20683;-83
2022/10/25 05:17:56;;;;;;;11.20;10.20;;;;;;;;;;6621980;28;20194;-83
2022/10/25 05:21:08;;;;;;;11.27;10.17;;;;;;;;;;6622261;28;20250;-83
2022/10/25 05:24:19;;;;;;;12.50;11.20;;;;;;;;;;6622454;28;20568;-83
2022/10/25 05:27:29;;;;;;;13.57;11.77;;;;;;;;;;6622910;28;20171;-83
2022/10/25 05:30:42;;;;;;;14.27;12.40;;;;;;;;;;6622113;28;20168;-83
2022/10/25 05:33:57;;;;;;;16.03;13.83;;;;;;;;;;6621660;28;20250;-83
2022/10/25 05:37:07;;;;;;;15.90;13.00;;;;;;;;;;6622347;28;20191;-83
2022/10/25 05:40:18;;;;;;;14.10;12.37;;;;;;;;;;6627956;28;20605;-83
2022/10/25 05:43:28;;;;;;;13.47;11.80;;;;;;;;;;6626605;28;20167;-82
2022/10/25 05:46:38;;;;;;;9.40;8.27;;;;;;;;;;6626587;28;20195;-82
2022/10/25 05:49:49;;;;;;;9.93;8.70;;;;;;;;;;6626366;28;20175;-81
2022/10/25 05:52:59;;;;;;;10.50;9.07;;;;;;;;;;6626725;28;20171;-82
2022/10/25 05:56:09;;;;;;;17.80;12.97;;;;;;;;;;6626600;28;20578;-83
2022/10/25 05:59:20;;;;;;;19.43;14.93;;;;;;;;;;6627132;28;20198;-82
2022/10/25 06:02:30;;;;;;;19.00;14.50;;;;;;;;;;6626222;28;20198;-82
2022/10/25 06:05:40;;;;;;;17.53;13.20;;;;;;;;;;6627057;28;20204;-82
2022/10/25 06:08:55;;;;;;;19.37;14.23;;;;;;;;;;6626208;28;20176;-81
2022/10/25 06:12:05;;;;;;;28.27;18.37;;;;;;;;;;6608502;28;20647;-81
2022/10/25 06:15:16;;;;;;;21.47;15.23;;;;;;;;;;6626467;28;20260;-81
2022/10/25 06:18:26;;;;;;;16.40;11.60;;;;;;;;;;6625893;28;20172;-81
2022/10/25 06:21:36;;;;;;;11.53;9.47;;;;;;;;;;6627257;28;20609;-82
2022/10/25 06:24:47;;;;;;;10.87;9.77;;;;;;;;;;6608173;28;20253;-82
2022/10/25 06:27:57;;;;;;;10.73;9.53;;;;;;;;;;6609281;28;20183;-81
2022/10/25 06:31:09;;;;;;;11.27;9.53;;;;;;;;;;6626001;28;20249;-81
2022/10/25 06:34:19;;;;;;;11.23;10.03;;;;;;;;;;6607949;28;20512;-81
2022/10/25 06:37:29;;;;;;;11.43;9.60;;;;;;;;;;6625483;28;20175;-81
2022/10/25 06:40:40;;;;;;;12.63;9.83;;;;;;;;;;6626123;28;20179;-81
2022/10/25 06:43:50;;;;;;;10.40;9.27;;;;;;;;;;6626608;28;20254;-81
2022/10/25 06:47:01;;;;;;;12.30;10.37;;;;;;;;;;6625619;28;20176;-81
2022/10/25 06:50:12;;;;;;;13.43;11.23;;;;;;;;;;6624117;28;20167;-81
2022/10/25 06:53:22;;;;;;;12.63;11.03;;;;;;;;;;6625603;28;20199;-81
2022/10/25 06:56:33;;;;;;;13.37;10.63;;;;;;;;;;6625235;28;20223;-81
2022/10/25 06:59:44;;;;;;;18.50;11.27;;;;;;;;;;6625082;28;20160;-83
2022/10/25 07:02:58;;;;;;;13.13;11.30;;;;;;;;;;6624222;28;20273;-83
2022/10/25 07:06:10;;;;;;;14.10;11.90;;;;;;;;;;6624918;28;20203;-82
2022/10/25 07:09:20;;;;;;;16.07;11.67;;;;;;;;;;6625062;28;20176;-81
2022/10/25 07:12:36;;;;;;;13.70;11.53;;;;;;;;;;6624998;28;20167;-82
2022/10/25 07:15:47;;;;;;;17.50;12.50;;;;;;;;;;6625242;28;20167;-82
2022/10/25 07:19:01;;;;;;;13.48;11.32;;;;;;;;;;6624201;28;20623;-82
2022/10/25 07:22:11;;;;;;;15.55;11.57;;;;;;;;;;6624315;28;20176;-82
2022/10/25 07:25:22;;;;;;;17.00;12.55;;;;;;;;;;6624258;28;20195;-83
2022/10/25 07:28:32;;;;;;;15.38;12.88;;;;;;;;;;6624504;28;20222;-83
2022/10/25 07:31:45;;;;;;;13.18;11.77;;;;;;;;;;6625382;28;20509;-83
2022/10/25 07:34:56;;;;;;;13.70;12.18;;;;;;;;;;6606405;28;20637;-82
2022/10/25 07:38:06;;;;;;;15.88;12.23;;;;;;;;;;6606875;28;20246;-83
2022/10/25 07:41:17;;;;;;;14.23;12.00;;;;;;;;;;6623993;28;20536;-83
2022/10/25 07:44:27;;;;;;;12.35;11.05;;;;;;;;;;6624776;28;20192;-81
2022/10/25 07:47:37;;;;;;;13.15;10.60;;;;;;;;;;6623754;28;20528;-82
2022/10/25 07:50:47;;;;;;;15.20;10.95;;;;;;;;;;6624064;28;20195;-82
2022/10/25 07:53:58;;;;;;;12.15;10.95;;;;;;;;;;6622231;28;20170;-82
2022/10/25 07:57:09;;;;;;;11.50;10.30;;;;;;;;;;6621390;28;20594;-82
2022/10/25 08:00:20;;;;;;;10.95;9.90;;;;;;;;;;6621677;28;20191;-81
2022/10/25 08:03:30;;;;;;;11.70;10.48;;;;;;;;;;6623014;28;20732;-81
2022/10/25 08:06:41;;;;;;;10.48;9.50;;;;;;;;;;6623592;28;20199;-82
2022/10/25 08:09:51;;;;;;;10.93;9.70;;;;;;;;;;6623214;28;20229;-81
2022/10/25 08:13:01;;;;;;;10.18;9.20;;;;;;;;;;6623113;28;20176;-82
2022/10/25 08:16:11;;;;;;;12.00;9.35;;;;;;;;;;6622626;28;20180;-81
2022/10/25 08:19:22;;;;;;;8.93;8.02;;;;;;;;;;6623155;28;20179;-82
2022/10/25 08:22:32;;;;;;;10.40;9.40;;;;;;;;;;6623022;28;20540;-82
2022/10/25 08:25:42;;;;;;;10.18;9.18;;;;;;;;;;6622566;28;20199;-81
2022/10/25 08:28:53;;;;;;;10.25;9.23;;;;;;;;;;6622810;28;20172;-82
2022/10/25 08:32:03;;;;;;;9.57;8.57;;;;;;;;;;6623243;28;20262;-81
2022/10/25 08:35:15;;;;;;;9.13;8.15;;;;;;;;;;6622495;28;20172;-82
2022/10/25 08:38:25;;;;;;;9.90;8.43;;;;;;;;;;6622213;28;20174;-81
2022/10/25 08:41:46;;;;;;;9.68;8.55;;;;;;;;;;6622179;28;20172;-81
2022/10/25 08:44:59;;;;;;;9.48;8.48;;;;;;;;;;6622908;28;20329;-81
2022/10/25 08:48:13;;;;;;;9.10;8.20;;;;;;;;;;6622192;28;20168;-81
2022/10/25 08:51:28;;;;;;;9.32;8.43;;;;;;;;;;6621836;28;20170;-82
2022/10/25 08:54:41;;;;;;;9.13;8.30;;;;;;;;;;6622057;28;20569;-82
2022/10/25 08:57:52;;;;;;;10.45;8.93;;;;;;;;;;6621321;28;20251;-82
2022/10/25 09:01:11;;;;;;;9.05;8.25;;;;;;;;;;6622047;28;20650;-82
2022/10/25 09:04:22;;;;;;;8.88;8.07;;;;;;;;;;6621897;28;20270;-82
2022/10/25 09:07:51;;;;;;;9.30;7.97;;;;;;;;;;6622477;28;20613;-81
2022/10/25 09:11:20;;;;;;;10.60;7.63;;;;;;;;;;6621927;28;20211;-81
2022/10/25 09:14:48;;;;;;;9.77;8.18;;;;;;;;;;6621078;28;20535;-81
2022/10/25 09:18:01;;;;;;;8.43;7.60;;;;;;;;;;6622486;28;20228;-81
2022/10/25 09:21:20;;;;;;;8.98;8.18;;;;;;;;;;6621760;28;20194;-82
2022/10/25 09:24:50;;;;;;;11.02;7.57;;;;;;;;;;6621585;28;20261;-81
2022/10/25 09:28:10;;;;;;;8.30;7.50;;;;;;;;;;6621495;28;20194;-82
2022/10/25 09:31:23;;;;;;;8.77;7.88;;;;;;;;;;6621918;28;20627;-82
2022/10/25 09:34:34;;;;;;;8.60;7.68;;;;;;;;;;6622000;28;20174;-82
2022/10/25 09:37:47;;;;;;;13.43;7.68;;;;;;;;;;6621678;28;20172;-81
2022/10/25 09:41:02;;;;;;;7.18;6.57;;;;;;;;;;6621491;28;20195;-82
2022/10/25 09:44:25;;;;;;;10.98;7.28;;;;;;;;;;6621734;28;20168;-82
2022/10/25 09:47:42;;;;;;;9.07;7.38;;;;;;;;;;6622759;28;20192;-82
2022/10/25 09:50:56;;;;;;;9.13;7.10;;;;;;;;;;6622186;28;20218;-82
2022/10/25 09:54:14;;;;;;;8.52;6.75;;;;;;;;;;6621711;28;20286;-82
2022/10/25 09:57:24;;;;;;;8.25;7.38;;;;;;;;;;6621914;28;20289;-82
2022/10/25 10:00:37;;;;;;;8.20;7.40;;;;;;;;;;6621310;28;20172;-82
2022/10/25 10:03:48;;;;;;;8.07;7.28;;;;;;;;;;6620847;28;20199;-81
2022/10/25 10:07:01;;;;;;;8.07;7.28;;;;;;;;;;6603654;28;20207;-82
2022/10/25 10:10:14;;;;;;;8.00;7.25;;;;;;;;;;6621144;28;20529;-83
2022/10/25 10:13:30;;;;;;;7.03;6.43;;;;;;;;;;6620968;28;20206;-82
2022/10/25 10:16:45;;;;;;;8.32;7.15;;;;;;;;;;6621047;28;20172;-82
2022/10/25 10:20:21;;;;;;;8.25;7.45;;;;;;;;;;6621197;28;20172;-83
2022/10/25 10:23:35;;;;;;;8.30;7.20;;;;;;;;;;6618767;28;20654;-82
2022/10/25 10:26:47;;;;;;;8.70;7.63;;;;;;;;;;6625962;28;20568;-82
2022/10/25 10:29:59;;;;;;;7.47;6.78;;;;;;;;;;6626089;28;20241;-82
2022/10/25 10:33:15;;;;;;;10.00;6.97;;;;;;;;;;6626063;28;20180;-82
2022/10/25 10:36:27;;;;;;;7.47;6.68;;;;;;;;;;6626105;28;20254;-82
2022/10/25 10:40:06;;;;;;;9.38;7.63;;;;;;;;;;6626082;28;20168;-82
2022/10/25 10:43:27;;;;;;;10.70;7.25;;;;;;;;;;6608310;28;20194;-83
2022/10/25 10:46:45;;;;;;;8.52;7.65;;;;;;;;;;6625197;28;20196;-82
2022/10/25 10:49:55;;;;;;;7.55;6.82;;;;;;;;;;6625234;28;20199;-82
2022/10/25 10:53:16;;;;;;;8.13;7.20;;;;;;;;;;6607397;28;20175;-82
2022/10/25 10:56:29;;;;;;;8.63;7.43;;;;;;;;;;6625006;28;20227;-82
2022/10/25 10:59:44;;;;;;;7.88;6.30;;;;;;;;;;6625441;28;20703;-82
2022/10/25 11:02:55;;;;;;;7.63;6.93;;;;;;;;;;6624986;28;20281;-82
2022/10/25 11:06:14;;;;;;;7.85;7.15;;;;;;;;;;6624759;28;20207;-82
2022/10/25 11:09:24;;;;;;;9.35;7.20;;;;;;;;;;6624833;28;20544;-82
2022/10/25 11:12:34;;;;;;;8.15;7.35;;;;;;;;;;6625549;28;20332;-82
2022/10/25 11:16:03;;;;;;;9.95;7.30;;;;;;;;;;6624683;28;20176;-82
2022/10/25 11:19:26;;;;;;;6.50;5.90;;;;;;;;;;6624962;28;20178;-82
2022/10/25 11:22:55;;;;;;;6.55;6.03;;;;;;;;;;6624213;28;20647;-82
2022/10/25 11:26:05;;;;;;;7.95;5.95;;;;;;;;;;6625409;28;20195;-83
2022/10/25 11:29:25;;;;;;;8.57;6.97;;;;;;;;;;6624985;28;20281;-82
2022/10/25 11:32:44;;;;;;;6.75;6.00;;;;;;;;;;6624977;28;20163;-82
2022/10/25 11:36:01;;;;;;;7.88;6.20;;;;;;;;;;6622592;28;20176;-82
2022/10/25 11:39:11;;;;;;;7.07;5.80;;;;;;;;;;6623093;28;20168;-82
2022/10/25 11:42:30;;;;;;;6.32;5.75;;;;;;;;;;6623998;28;20174;-82
2022/10/25 11:45:42;;;;;;;6.43;5.93;;;;;;;;;;6622163;28;20187;-82
2022/10/25 11:48:55;;;;;;;8.25;5.90;;;;;;;;;;6603817;28;20522;-83
2022/10/25 11:52:17;;;;;;;6.75;5.60;;;;;;;;;;6621494;28;20211;-83
2022/10/25 11:55:37;;;;;;;7.78;5.93;;;;;;;;;;6621635;28;20175;-83
2022/10/25 11:58:48;;;;;;;6.07;5.57;;;;;;;;;;6620923;28;20227;-82
2022/10/25 12:02:19;;;;;;;6.75;5.65;;;;;;;;;;6621326;28;20198;-81
2022/10/25 12:05:29;;;;;;;6.97;5.70;;;;;;;;;;6622053;28;20239;-83
2022/10/25 12:08:55;;;;;;;6.43;5.82;;;;;;;;;;6622243;28;20175;-83
2022/10/25 12:12:28;;;;;;;7.85;5.78;;;;;;;;;;6623850;28;20171;-83
2022/10/25 12:15:43;;;;;;;6.30;5.20;;;;;;;;;;6612776;28;20684;-83
2022/10/25 12:19:10;;;;;;;7.50;5.10;;;;;;;;;;6623373;28;20226;-83
2022/10/25 12:22:24;;;;;;;6.97;5.55;;;;;;;;;;6623811;28;20164;-82
2022/10/25 12:25:38;;;;;;;5.65;5.15;;;;;;;;;;6623215;28;20687;-82
2022/10/25 12:28:48;;;;;;;7.03;5.15;;;;;;;;;;6622902;28;20199;-83
2022/10/25 12:32:00;;;;;;;7.47;5.43;;;;;;;;;;6621002;28;20168;-82
2022/10/25 12:35:19;;;;;;;7.57;5.22;;;;;;;;;;6620577;28;20182;-83
2022/10/25 12:38:32;;;;;;;6.20;4.90;;;;;;;;;;6620702;28;20164;-82
2022/10/25 12:41:44;;;;;;;6.32;4.90;;;;;;;;;;6620052;28;20168;-82
2022/10/25 12:45:06;;;;;;;7.30;4.88;;;;;;;;;;6602341;28;20751;-82
2022/10/25 12:48:23;;;;;;;7.28;5.10;;;;;;;;;;6619760;28;20179;-82
2022/10/25 12:51:33;;;;;;;5.15;4.60;;;;;;;;;;6620811;28;20183;-81
2022/10/25 12:54:43;;;;;;;5.22;4.40;;;;;;;;;;6604795;28;20621;-81
2022/10/25 12:57:59;;;;;;;6.57;4.88;;;;;;;;;;6622919;28;20589;-81
2022/10/25 13:01:12;;;;;;;5.78;4.45;;;;;;;;;;6622516;28;20187;-81
2022/10/25 13:04:30;;;;;;;4.80;4.40;;;;;;;;;;6622754;28;20321;-80
2022/10/25 13:07:41;;;;;;;4.63;4.18;;;;;;;;;;6622073;28;20172;-80
2022/10/25 13:11:02;;;;;;;6.55;4.00;;;;;;;;;;6622391;28;20181;-82
2022/10/25 13:14:25;;;;;;;4.75;4.10;;;;;;;;;;6621947;28;20214;-82
2022/10/25 13:17:38;;;;;;;5.70;4.25;;;;;;;;;;6622347;28;20182;-82
2022/10/25 13:20:49;;;;;;;5.70;4.55;;;;;;;;;;6622358;28;20517;-82
2022/10/25 13:24:01;;;;;;;4.97;4.47;;;;;;;;;;6621852;28;20207;-82
2022/10/25 13:27:11;;;;;;;5.47;4.43;;;;;;;;;;6622624;28;20211;-82
2022/10/25 13:30:23;;;;;;;8.63;4.55;;;;;;;;;;6622290;28;20176;-82
2022/10/25 13:33:34;;;;;;;9.40;4.32;;;;;;;;;;6621718;28;20176;-82
2022/10/25 13:36:46;;;;;;;7.38;4.53;;;;;;;;;;6604613;28;20532;-82
2022/10/25 13:40:25;;;;;;;6.75;4.95;;;;;;;;;;6621824;28;20178;-83
2022/10/25 13:43:55;;;;;;;8.98;5.03;;;;;;;;;;6594162;28;20191;-82
2022/10/25 13:47:25;;;;;;;8.75;4.88;;;;;;;;;;6621472;28;20183;-83
2022/10/25 13:50:42;;;;;;;7.25;4.97;;;;;;;;;;6621732;28;20164;-83
2022/10/25 13:53:53;;;;;;;5.37;4.37;;;;;;;;;;6621465;28;20168;-84
2022/10/25 13:57:03;;;;;;;6.95;4.90;;;;;;;;;;6603477;28;20715;-84
2022/10/25 14:00:25;;;;;;;5.25;4.75;;;;;;;;;;6625416;28;20172;-83
2022/10/25 14:03:52;;;;;;;5.72;5.13;;;;;;;;;;6626435;28;20191;-83
2022/10/25 14:07:21;;;;;;;6.70;4.70;;;;;;;;;;6626160;28;20574;-83
2022/10/25 14:10:33;;;;;;;5.33;4.83;;;;;;;;;;6626797;28;20233;-83
2022/10/25 14:13:51;;;;;;;5.93;4.60;;;;;;;;;;6627018;28;20520;-83
2022/10/25 14:17:27;;;;;;;4.77;4.30;;;;;;;;;;6626892;28;20176;-84
2022/10/25 14:20:38;;;;;;;7.33;5.57;;;;;;;;;;6623771;28;20180;-83
2022/10/25 14:23:48;;;;;;;7.37;5.83;;;;;;;;;;6626205;28;20532;-83
2022/10/25 14:26:59;;;;;;;6.03;5.43;;;;;;;;;;6608281;28;20211;-82
2022/10/25 14:30:19;;;;;;;8.47;5.97;;;;;;;;;;6626012;28;20207;-83
2022/10/25 14:33:34;;;;;;;7.93;5.90;;;;;;;;;;6624864;28;20222;-84
2022/10/25 14:36:47;;;;;;;6.77;5.30;;;;;;;;;;6623700;28;20294;-84
2022/10/25 14:39:57;;;;;;;7.07;5.40;;;;;;;;;;6623312;28;20225;-84
2022/10/25 14:43:40;;;;;;;8.33;5.73;;;;;;;;;;6623111;28;20175;-85
2022/10/25 14:46:52;;;;;;;8.10;5.67;;;;;;;;;;6578460;28;20215;-84
2022/10/25 14:50:03;;;;;;;6.50;5.80;;;;;;;;;;6623245;28;20176;-84
2022/10/25 14:53:17;;;;;;;9.83;6.87;;;;;;;;;;6623815;28;20176;-84
2022/10/25 14:56:27;;;;;;;7.87;7.07;;;;;;;;;;6624571;28;20559;-85
2022/10/25 14:59:45;;;;;;;10.23;7.40;;;;;;;;;;6625219;28;20207;-84
2022/10/25 15:03:00;;;;;;;7.93;7.10;;;;;;;;;;6624783;28;20187;-84
2022/10/25 15:06:12;;;;;;;8.17;7.27;;;;;;;;;;6623554;28;20197;-85
2022/10/25 15:09:22;;;;;;;9.23;6.60;;;;;;;;;;6624474;28;20204;-85
2022/10/25 15:12:33;;;;;;;8.90;6.27;;;;;;;;;;6624643;28;20176;-86
2022/10/25 15:15:45;;;;;;;8.90;6.53;;;;;;;;;;6625507;28;20207;-84
2022/10/25 15:19:03;;;;;;;8.73;7.13;;;;;;;;;;6624870;28;20168;-82
2022/10/25 15:22:14;;;;;;;10.53;7.43;;;;;;;;;;6624572;28;20179;-82
2022/10/25 15:25:24;;;;;;;9.67;7.60;;;;;;;;;;6606808;28;20195;-81
2022/10/25 15:28:47;;;;;;;8.47;7.50;;;;;;;;;;6624186;28;20229;-82
2022/10/25 15:31:57;;;;;;;9.90;8.30;;;;;;;;;;6624129;28;20631;-83
2022/10/25 15:35:18;;;;;;;9.73;8.27;;;;;;;;;;6624296;28;20298;-82
2022/10/25 15:38:33;;;;;;;12.97;9.47;;;;;;;;;;6624278;28;20571;-82
2022/10/25 15:41:43;;;;;;;14.57;11.20;;;;;;;;;;6623726;28;20176;-84
2022/10/25 15:44:54;;;;;;;12.87;10.90;;;;;;;;;;6624470;28;20199;-84
2022/10/25 15:48:08;;;;;;;10.47;9.00;;;;;;;;;;6623912;28;20207;-84
2022/10/25 15:51:19;;;;;;;14.73;9.33;;;;;;;;;;6606317;28;20211;-83
2022/10/25 15:54:29;;;;;;;14.33;9.73;;;;;;;;;;6623627;28;20178;-84
2022/10/25 15:57:40;;;;;;;10.53;8.97;;;;;;;;;;6623339;28;20235;-84
2022/10/25 16:00:52;;;;;;;9.30;8.23;;;;;;;;;;6605576;28;20597;-84
2022/10/25 16:04:03;;;;;;;11.53;8.90;;;;;;;;;;6623336;28;20198;-85
2022/10/25 16:07:14;;;;;;;11.50;9.60;;;;;;;;;;6623278;28;20738;-83
2022/10/25 16:10:25;;;;;;;10.37;9.27;;;;;;;;;;6623830;28;20176;-83
2022/10/25 16:13:36;;;;;;;10.80;9.43;;;;;;;;;;6605242;28;20617;-83
2022/10/25 16:16:47;;;;;;;14.77;8.80;;;;;;;;;;6622916;28;20222;-85
2022/10/25 16:19:57;;;;;;;9.97;8.97;;;;;;;;;;6622150;28;20168;-84
2022/10/25 16:23:08;;;;;;;11.23;9.13;;;;;;;;;;6622513;28;20175;-84
2022/10/25 16:26:23;;;;;;;14.20;9.30;;;;;;;;;;6622740;28;20257;-83
2022/10/25 16:29:34;;;;;;;8.23;7.43;;;;;;;;;;6604817;28;20179;-84
2022/10/25 16:32:44;;;;;;;12.47;9.33;;;;;;;;;;6603978;28;20206;-84
2022/10/25 16:35:55;;;;;;;11.37;10.10;;;;;;;;;;6605371;28;20246;-84
2022/10/25 16:39:06;;;;;;;11.67;9.37;;;;;;;;;;6622074;28;20228;-84
2022/10/25 16:42:33;;;;;;;15.43;10.00;;;;;;;;;;6622055;28;20255;-83
2022/10/25 16:45:44;;;;;;;12.77;10.07;;;;;;;;;;6622225;28;20200;-83
2022/10/25 16:48:54;;;;;;;15.17;10.63;;;;;;;;;;6622590;28;20203;-84
2022/10/25 16:52:04;;;;;;;15.13;10.90;;;;;;;;;;6622030;28;20168;-83
2022/10/25 16:55:15;;;;;;;12.63;10.17;;;;;;;;;;6622957;28;20183;-84
2022/10/25 16:58:25;;;;;;;13.03;10.30;;;;;;;;;;6623537;28;20230;-83
2022/10/25 17:01:35;;;;;;;14.97;10.50;;;;;;;;;;6621978;28;20203;-83
2022/10/25 17:04:47;;;;;;;13.43;11.23;;;;;;;;;;6621893;28;20229;-83
2022/10/25 17:07:58;;;;;;;15.27;10.57;;;;;;;;;;6622146;28;20260;-83
2022/10/25 17:11:08;;;;;;;17.37;11.00;;;;;;;;;;6623290;28;20305;-83
2022/10/25 17:14:18;;;;;;;17.13;14.03;;;;;;;;;;6622345;28;20222;-84
2022/10/25 17:17:29;;;;;;;15.57;13.97;;;;;;;;;;6622563;28;20175;-85
2022/10/25 17:20:39;;;;;;;21.33;16.23;;;;;;;;;;6621623;28;20168;-84
2022/10/25 17:23:49;;;;;;;18.53;15.53;;;;;;;;;;6621384;28;20164;-83
2022/10/25 17:27:00;;;;;;;20.90;14.63;;;;;;;;;;6622501;28;20570;-82
2022/10/25 17:30:10;;;;;;;13.77;12.27;;;;;;;;;;6621750;28;20176;-82
2022/10/25 17:33:21;;;;;;;19.17;13.53;;;;;;;;;;6621772;28;20171;-83
2022/10/25 17:36:32;;;;;;;16.70;14.37;;;;;;;;;;6627494;28;20174;-82
2022/10/25 17:39:42;;;;;;;19.57;15.23;;;;;;;;;;6627572;28;20221;-82
2022/10/25 17:42:52;;;;;;;15.80;13.40;;;;;;;;;;6610006;28;20688;-83
2022/10/25 17:46:04;;;;;;;14.03;12.53;;;;;;;;;;6609135;28;20210;-83
2022/10/25 17:49:15;;;;;;;13.73;12.30;;;;;;;;;;6626553;28;20176;-84
2022/10/25 17:52:25;;;;;;;14.00;11.40;;;;;;;;;;6626619;28;20213;-83
2022/10/25 17:55:35;;;;;;;13.83;11.20;;;;;;;;;;6627777;28;20172;-83
2022/10/25 17:58:46;;;;;;;13.70;10.40;;;;;;;;;;6627954;28;20238;-82
2022/10/25 18:01:57;;;;;;;12.17;10.40;;;;;;;;;;6626178;28;20203;-82
2022/10/25 18:05:07;;;;;;;11.17;9.70;;;;;;;;;;6626442;28;20534;-83
2022/10/25 18:08:18;;;;;;;10.63;8.90;;;;;;;;;;6608434;28;20669;-83
2022/10/25 18:11:29;;;;;;;10.43;9.30;;;;;;;;;;6626630;28;20171;-83
2022/10/25 18:14:39;;;;;;;11.23;9.03;;;;;;;;;;6626596;28;20167;-83
2022/10/25 18:17:49;;;;;;;12.43;9.47;;;;;;;;;;6625894;28;20682;-84
2022/10/25 18:21:06;;;;;;;11.93;9.60;;;;;;;;;;6626745;28;20171;-84
2022/10/25 18:24:17;;;;;;;11.63;9.43;;;;;;;;;;6608632;28;20613;-82
2022/10/25 18:27:28;;;;;;;13.77;8.60;;;;;;;;;;6625807;28;20194;-82
2022/10/25 18:30:39;;;;;;;11.03;9.07;;;;;;;;;;6608041;28;20172;-82
2022/10/25 18:33:49;;;;;;;12.80;8.73;;;;;;;;;;6625731;28;20682;-82
2022/10/25 18:36:59;;;;;;;10.17;8.80;;;;;;;;;;6626418;28;20219;-82
2022/10/25 18:40:10;;;;;;;10.93;9.10;;;;;;;;;;6625525;28;20168;-82
2022/10/25 18:43:22;;;;;;;10.27;9.27;;;;;;;;;;6626207;28;20203;-83
2022/10/25 18:46:32;;;;;;;11.97;9.30;;;;;;;;;;6625151;28;20579;-82
2022/10/25 18:49:42;;;;;;;12.50;9.63;;;;;;;;;;6625753;28;20199;-82
2022/10/25 18:52:53;;;;;;;11.70;8.97;;;;;;;;;;6625644;28;20250;-82
2022/10/25 18:56:06;;;;;;;11.33;10.00;;;;;;;;;;6625097;28;20172;-82
2022/10/25 18:59:16;;;;;;;10.90;9.33;;;;;;;;;;6626343;28;20191;-82
2022/10/25 19:02:26;;;;;;;13.47;10.53;;;;;;;;;;6625165;28;20187;-83